Amonate, Virginia
Current Conditions -  °F | °C
As of 10:35 PM on Monday 20 Oct 2014 (Local Time) from KJFZ Reporting Station
Light Rain Light Rain  
Wind Chill: 56°   Ceiling: 4500
Heat Index: 56°   Visibility: 10mi
Dew Point: 49°   Wind: 7mph
Humidity: 78%   Direction: 230°SW
Pressure: 30.01"   Gusts: NA
Location:  37.19°N, 81.64°W
Report Text: KJFZ 210235Z AUTO 23006KT 10SM -RA BKN045 OVC050 13/10 A3001 RMK AO2 T01330095
Loading
Personal Weather Stations






























Interactive Weather Map New forecast layout! Learn more

10-Day Weather Forecast

Advertisements
Track Severe Weather on mobile